Airfield :
LOGIN :

Register | Disclaimer

   EN    FR    IT 

 










Legend :    VFR   Marginal VFR   IFR   Intensive IFR   Very Intensive IFR
Visi :
Ceiling :
>= 8 km
>= 3000ft
5 to 8 km
1000 to 3000 ft
1500m to 5 km
500 to 1000 ft
800 to 1500m
200 to 500 ft
< 800m
< 200 ft
Symbols :   Thunderstorms  Fog  Heavy snow  Heavy precipitations  Wind > 20 kt
SIGMETs :     Misc.  Thunderstorms  Icing  Turbulence  Mountain Waves  Volcanic Ashes






- Airport Elevation : 247 ft
- IATA code : BLL


EKBI - Billund

CURRENT METAR :
  • 231720Z AUTO 18004KT 9999 BKN039/// 08/04 Q1025

EXPIRED METARs :
  • 231650Z AUTO 20002KT 9999 OVC039/// 08/04 Q1025
  • 231620Z AUTO 23002KT 9999 OVC038/// 08/04 Q1025
  • 231550Z AUTO 24003KT 9999 OVC041/// 08/04 Q1024
  • 231520Z AUTO 26005KT 9999 BKN043/// 08/03 Q1024
  • 231450Z AUTO 25005KT 9999 FEW045/// 08/03 Q1024
  • 231420Z AUTO 27006KT 9999 BKN045/// 09/04 Q1024

TAF TAF EKBI
Valid from the 23 at 12:00 until the 24 at 12:00 UTC


231109Z 2312/2412 29010KT 9999 SCT030
BECMG 2318/2321 18008KT
TEMPO 2401/2406 4000 BR RADZ BKN012



MET'MAP, your aeronautical weather chart ! - Copyright ORBIFLY December 2007 - Disclaimer

ORBIFLY MET'MAP TEAM :

Programming & Development : Alexandra Zaïnal
Concept & original design : Baudouin d'Aumeries
Assistance for programming : Marc-Olivier Méhu
Technical & hardware support : Manuel Goepfert

Contact : metmap@orbifly.com




SOURCES & CREDITS :

   NOAA